sensor_id;sensor_type;location;lat;lon;timestamp;P1;durP1;ratioP1;P2;durP2;ratioP2
22007;SDS011;11168;56.976;24.168;2023-05-13T00:00:00;6.55;;;3.40;;
22007;SDS011;11168;56.976;24.168;2023-05-13T00:02:27;7.95;;;3.55;;
22007;SDS011;11168;56.976;24.168;2023-05-13T00:04:54;9.13;;;3.58;;
22007;SDS011;11168;56.976;24.168;2023-05-13T00:07:21;9.43;;;3.30;;
22007;SDS011;11168;56.976;24.168;2023-05-13T00:09:48;4.25;;;3.38;;
22007;SDS011;11168;56.976;24.168;2023-05-13T00:12:15;6.57;;;3.47;;
22007;SDS011;11168;56.976;24.168;2023-05-13T00:14:42;7.20;;;3.65;;
22007;SDS011;11168;56.976;24.168;2023-05-13T00:17:09;9.45;;;3.72;;
22007;SDS011;11168;56.976;24.168;2023-05-13T00:19:36;8.68;;;3.38;;
22007;SDS011;11168;56.976;24.168;2023-05-13T00:22:03;7.35;;;3.17;;
22007;SDS011;11168;56.976;24.168;2023-05-13T00:24:30;9.85;;;4.03;;
22007;SDS011;11168;56.976;24.168;2023-05-13T00:26:57;7.68;;;3.80;;
22007;SDS011;11168;56.976;24.168;2023-05-13T00:29:24;9.05;;;3.55;;
22007;SDS011;11168;56.976;24.168;2023-05-13T00:31:51;7.65;;;3.60;;
22007;SDS011;11168;56.976;24.168;2023-05-13T00:34:18;10.90;;;3.92;;
22007;SDS011;11168;56.976;24.168;2023-05-13T00:36:45;7.28;;;3.50;;
22007;SDS011;11168;56.976;24.168;2023-05-13T00:39:12;14.20;;;3.85;;
22007;SDS011;11168;56.976;24.168;2023-05-13T00:41:39;8.52;;;3.63;;
22007;SDS011;11168;56.976;24.168;2023-05-13T00:44:06;9.15;;;3.53;;
22007;SDS011;11168;56.976;24.168;2023-05-13T00:46:33;6.22;;;3.35;;
22007;SDS011;11168;56.976;24.168;2023-05-13T00:49:00;8.23;;;4.15;;
22007;SDS011;11168;56.976;24.168;2023-05-13T00:51:30;7.65;;;3.67;;
22007;SDS011;11168;56.976;24.168;2023-05-13T00:54:00;7.78;;;3.53;;
22007;SDS011;11168;56.976;24.168;2023-05-13T00:56:27;6.05;;;4.13;;
22007;SDS011;11168;56.976;24.168;2023-05-13T00:58:54;9.82;;;3.90;;
22007;SDS011;11168;56.976;24.168;2023-05-13T01:12:18;8.18;;;4.85;;
22007;SDS011;11168;56.976;24.168;2023-05-13T01:14:52;12.13;;;5.05;;
22007;SDS011;11168;56.976;24.168;2023-05-13T01:17:29;8.95;;;4.90;;
22007;SDS011;11168;56.976;24.168;2023-05-13T01:20:07;12.70;;;5.65;;
22007;SDS011;11168;56.976;24.168;2023-05-13T01:22:34;13.38;;;6.07;;
22007;SDS011;11168;56.976;24.168;2023-05-13T01:25:01;11.55;;;7.32;;
22007;SDS011;11168;56.976;24.168;2023-05-13T01:27:28;19.20;;;10.48;;
22007;SDS011;11168;56.976;24.168;2023-05-13T01:29:55;16.17;;;9.50;;
22007;SDS011;11168;56.976;24.168;2023-05-13T01:32:22;14.38;;;8.88;;
22007;SDS011;11168;56.976;24.168;2023-05-13T01:34:50;17.92;;;9.45;;
22007;SDS011;11168;56.976;24.168;2023-05-13T01:37:18;19.20;;;10.57;;
22007;SDS011;11168;56.976;24.168;2023-05-13T01:39:46;16.92;;;10.50;;
22007;SDS011;11168;56.976;24.168;2023-05-13T01:42:13;15.43;;;9.70;;
22007;SDS011;11168;56.976;24.168;2023-05-13T01:44:41;17.73;;;9.43;;
22007;SDS011;11168;56.976;24.168;2023-05-13T01:47:09;17.83;;;9.40;;
22007;SDS011;11168;56.976;24.168;2023-05-13T01:49:36;15.23;;;8.68;;
22007;SDS011;11168;56.976;24.168;2023-05-13T01:52:03;13.80;;;8.75;;
22007;SDS011;11168;56.976;24.168;2023-05-13T01:54:30;18.02;;;8.90;;
22007;SDS011;11168;56.976;24.168;2023-05-13T01:56:57;15.20;;;9.32;;
22007;SDS011;11168;56.976;24.168;2023-05-13T01:59:24;18.90;;;9.82;;
22007;SDS011;11168;56.976;24.168;2023-05-13T02:01:51;14.73;;;10.02;;
22007;SDS011;11168;56.976;24.168;2023-05-13T02:04:18;18.52;;;9.75;;
22007;SDS011;11168;56.976;24.168;2023-05-13T02:06:47;15.60;;;9.30;;
22007;SDS011;11168;56.976;24.168;2023-05-13T02:09:14;17.00;;;10.45;;
22007;SDS011;11168;56.976;24.168;2023-05-13T02:11:41;16.10;;;10.88;;
22007;SDS011;11168;56.976;24.168;2023-05-13T02:14:08;19.50;;;12.68;;
22007;SDS011;11168;56.976;24.168;2023-05-13T02:16:35;17.85;;;12.50;;
22007;SDS011;11168;56.976;24.168;2023-05-13T02:19:03;17.42;;;11.77;;
22007;SDS011;11168;56.976;24.168;2023-05-13T02:21:30;17.15;;;10.68;;
22007;SDS011;11168;56.976;24.168;2023-05-13T02:23:57;16.83;;;9.75;;
22007;SDS011;11168;56.976;24.168;2023-05-13T02:26:24;20.35;;;11.02;;
22007;SDS011;11168;56.976;24.168;2023-05-13T02:28:51;20.05;;;9.35;;
22007;SDS011;11168;56.976;24.168;2023-05-13T02:31:18;17.98;;;10.80;;
22007;SDS011;11168;56.976;24.168;2023-05-13T02:33:45;17.83;;;9.80;;
22007;SDS011;11168;56.976;24.168;2023-05-13T02:36:12;16.63;;;9.77;;
22007;SDS011;11168;56.976;24.168;2023-05-13T02:38:39;16.88;;;9.52;;
22007;SDS011;11168;56.976;24.168;2023-05-13T02:41:06;17.00;;;10.32;;
22007;SDS011;11168;56.976;24.168;2023-05-13T02:43:33;19.42;;;11.05;;
22007;SDS011;11168;56.976;24.168;2023-05-13T02:46:00;18.70;;;9.45;;
22007;SDS011;11168;56.976;24.168;2023-05-13T02:48:29;15.43;;;10.25;;
22007;SDS011;11168;56.976;24.168;2023-05-13T02:50:56;23.92;;;10.98;;
22007;SDS011;11168;56.976;24.168;2023-05-13T02:53:23;17.50;;;10.25;;
22007;SDS011;11168;56.976;24.168;2023-05-13T02:55:50;21.02;;;11.52;;
22007;SDS011;11168;56.976;24.168;2023-05-13T02:58:17;23.52;;;11.10;;
22007;SDS011;11168;56.976;24.168;2023-05-13T03:00:43;22.33;;;10.70;;
22007;SDS011;11168;56.976;24.168;2023-05-13T03:03:10;18.55;;;11.95;;
22007;SDS011;11168;56.976;24.168;2023-05-13T03:05:38;22.38;;;11.15;;
22007;SDS011;11168;56.976;24.168;2023-05-13T03:08:05;26.35;;;11.13;;
22007;SDS011;11168;56.976;24.168;2023-05-13T03:10:33;15.85;;;10.55;;
22007;SDS011;11168;56.976;24.168;2023-05-13T03:13:00;20.83;;;10.70;;
22007;SDS011;11168;56.976;24.168;2023-05-13T03:15:27;15.80;;;10.13;;
22007;SDS011;11168;56.976;24.168;2023-05-13T03:17:56;21.77;;;10.10;;
22007;SDS011;11168;56.976;24.168;2023-05-13T03:20:23;19.77;;;9.77;;
22007;SDS011;11168;56.976;24.168;2023-05-13T03:22:50;14.65;;;9.65;;
22007;SDS011;11168;56.976;24.168;2023-05-13T03:25:17;15.40;;;9.10;;
22007;SDS011;11168;56.976;24.168;2023-05-13T03:27:44;15.18;;;8.60;;
22007;SDS011;11168;56.976;24.168;2023-05-13T03:30:11;15.73;;;8.55;;
22007;SDS011;11168;56.976;24.168;2023-05-13T03:32:38;19.80;;;9.00;;
22007;SDS011;11168;56.976;24.168;2023-05-13T03:35:05;21.92;;;9.10;;
22007;SDS011;11168;56.976;24.168;2023-05-13T03:37:32;19.58;;;8.95;;
22007;SDS011;11168;56.976;24.168;2023-05-13T03:39:59;16.38;;;9.25;;
22007;SDS011;11168;56.976;24.168;2023-05-13T03:42:26;14.77;;;8.60;;
22007;SDS011;11168;56.976;24.168;2023-05-13T03:44:55;12.18;;;7.97;;
22007;SDS011;11168;56.976;24.168;2023-05-13T03:47:22;18.55;;;8.20;;
22007;SDS011;11168;56.976;24.168;2023-05-13T03:49:49;16.15;;;8.93;;
22007;SDS011;11168;56.976;24.168;2023-05-13T03:52:16;17.52;;;9.07;;
22007;SDS011;11168;56.976;24.168;2023-05-13T03:54:43;15.68;;;8.27;;
22007;SDS011;11168;56.976;24.168;2023-05-13T03:57:10;16.70;;;8.90;;
22007;SDS011;11168;56.976;24.168;2023-05-13T03:59:37;14.60;;;7.70;;
22007;SDS011;11168;56.976;24.168;2023-05-13T04:02:04;15.88;;;8.00;;
22007;SDS011;11168;56.976;24.168;2023-05-13T04:04:31;15.27;;;8.55;;
22007;SDS011;11168;56.976;24.168;2023-05-13T04:06:58;15.40;;;8.50;;
22007;SDS011;11168;56.976;24.168;2023-05-13T04:09:25;13.95;;;8.82;;
22007;SDS011;11168;56.976;24.168;2023-05-13T04:11:52;14.52;;;7.68;;
22007;SDS011;11168;56.976;24.168;2023-05-13T04:14:19;16.80;;;8.20;;
22007;SDS011;11168;56.976;24.168;2023-05-13T04:16:46;12.30;;;8.20;;
22007;SDS011;11168;56.976;24.168;2023-05-13T04:19:13;14.52;;;8.23;;
22007;SDS011;11168;56.976;24.168;2023-05-13T04:21:40;10.52;;;7.70;;
22007;SDS011;11168;56.976;24.168;2023-05-13T04:24:07;13.88;;;8.15;;
22007;SDS011;11168;56.976;24.168;2023-05-13T04:26:36;13.40;;;7.80;;
22007;SDS011;11168;56.976;24.168;2023-05-13T04:29:03;14.10;;;7.68;;
22007;SDS011;11168;56.976;24.168;2023-05-13T04:31:30;14.45;;;8.48;;
22007;SDS011;11168;56.976;24.168;2023-05-13T04:33:57;13.98;;;8.80;;
22007;SDS011;11168;56.976;24.168;2023-05-13T04:36:24;17.20;;;8.77;;
22007;SDS011;11168;56.976;24.168;2023-05-13T04:38:51;20.23;;;10.07;;
22007;SDS011;11168;56.976;24.168;2023-05-13T04:41:18;12.93;;;8.48;;
22007;SDS011;11168;56.976;24.168;2023-05-13T04:43:46;12.32;;;7.93;;
22007;SDS011;11168;56.976;24.168;2023-05-13T04:46:13;15.82;;;8.70;;
22007;SDS011;11168;56.976;24.168;2023-05-13T04:48:40;19.80;;;8.90;;
22007;SDS011;11168;56.976;24.168;2023-05-13T04:51:08;17.02;;;9.05;;
22007;SDS011;11168;56.976;24.168;2023-05-13T04:53:36;15.15;;;8.68;;
22007;SDS011;11168;56.976;24.168;2023-05-13T04:56:03;18.52;;;8.85;;
22007;SDS011;11168;56.976;24.168;2023-05-13T04:58:31;13.65;;;8.65;;
22007;SDS011;11168;56.976;24.168;2023-05-13T05:00:58;18.08;;;8.23;;
22007;SDS011;11168;56.976;24.168;2023-05-13T05:03:25;17.25;;;8.10;;
22007;SDS011;11168;56.976;24.168;2023-05-13T05:05:52;12.23;;;7.30;;
22007;SDS011;11168;56.976;24.168;2023-05-13T05:08:18;11.07;;;7.60;;
22007;SDS011;11168;56.976;24.168;2023-05-13T05:10:45;11.25;;;6.82;;
22007;SDS011;11168;56.976;24.168;2023-05-13T05:13:12;9.32;;;6.60;;
22007;SDS011;11168;56.976;24.168;2023-05-13T05:15:39;10.88;;;6.70;;
22007;SDS011;11168;56.976;24.168;2023-05-13T05:18:07;8.23;;;5.72;;
22007;SDS011;11168;56.976;24.168;2023-05-13T05:20:36;8.43;;;5.43;;
22007;SDS011;11168;56.976;24.168;2023-05-13T05:23:03;9.07;;;5.40;;
22007;SDS011;11168;56.976;24.168;2023-05-13T05:25:30;10.05;;;5.22;;
22007;SDS011;11168;56.976;24.168;2023-05-13T05:27:57;8.68;;;4.80;;
22007;SDS011;11168;56.976;24.168;2023-05-13T05:30:24;8.23;;;4.75;;
22007;SDS011;11168;56.976;24.168;2023-05-13T05:32:51;6.88;;;4.38;;
22007;SDS011;11168;56.976;24.168;2023-05-13T05:35:18;8.75;;;4.72;;
22007;SDS011;11168;56.976;24.168;2023-05-13T05:37:45;10.27;;;5.28;;
22007;SDS011;11168;56.976;24.168;2023-05-13T05:40:12;10.80;;;4.63;;
22007;SDS011;11168;56.976;24.168;2023-05-13T05:42:39;8.70;;;4.95;;
22007;SDS011;11168;56.976;24.168;2023-05-13T05:45:06;10.20;;;4.82;;
22007;SDS011;11168;56.976;24.168;2023-05-13T05:47:33;14.55;;;4.63;;
22007;SDS011;11168;56.976;24.168;2023-05-13T05:50:00;9.68;;;4.60;;
22007;SDS011;11168;56.976;24.168;2023-05-13T05:52:27;9.10;;;4.55;;
22007;SDS011;11168;56.976;24.168;2023-05-13T05:54:54;6.43;;;4.35;;
22007;SDS011;11168;56.976;24.168;2023-05-13T05:57:21;8.88;;;3.58;;
22007;SDS011;11168;56.976;24.168;2023-05-13T05:59:48;10.85;;;4.20;;
22007;SDS011;11168;56.976;24.168;2023-05-13T06:02:15;9.43;;;3.80;;
22007;SDS011;11168;56.976;24.168;2023-05-13T06:04:42;9.70;;;4.20;;
22007;SDS011;11168;56.976;24.168;2023-05-13T06:07:10;8.98;;;4.20;;
22007;SDS011;11168;56.976;24.168;2023-05-13T06:09:37;6.72;;;3.92;;
22007;SDS011;11168;56.976;24.168;2023-05-13T06:12:04;6.63;;;3.85;;
22007;SDS011;11168;56.976;24.168;2023-05-13T06:14:31;6.50;;;3.53;;
22007;SDS011;11168;56.976;24.168;2023-05-13T06:16:58;8.98;;;3.38;;
22007;SDS011;11168;56.976;24.168;2023-05-13T06:19:25;8.18;;;3.75;;
22007;SDS011;11168;56.976;24.168;2023-05-13T06:21:52;6.78;;;3.22;;
22007;SDS011;11168;56.976;24.168;2023-05-13T06:24:19;9.23;;;3.20;;
22007;SDS011;11168;56.976;24.168;2023-05-13T06:26:46;8.88;;;2.67;;
22007;SDS011;11168;56.976;24.168;2023-05-13T06:29:13;4.50;;;2.70;;
22007;SDS011;11168;56.976;24.168;2023-05-13T06:31:40;4.65;;;3.20;;
22007;SDS011;11168;56.976;24.168;2023-05-13T06:34:07;5.43;;;2.90;;
22007;SDS011;11168;56.976;24.168;2023-05-13T06:36:34;4.45;;;2.35;;
22007;SDS011;11168;56.976;24.168;2023-05-13T06:39:01;4.47;;;2.60;;
22007;SDS011;11168;56.976;24.168;2023-05-13T06:41:28;5.80;;;2.85;;
22007;SDS011;11168;56.976;24.168;2023-05-13T06:43:55;4.63;;;2.72;;
22007;SDS011;11168;56.976;24.168;2023-05-13T06:46:22;7.32;;;2.45;;
22007;SDS011;11168;56.976;24.168;2023-05-13T06:48:49;7.78;;;2.80;;
22007;SDS011;11168;56.976;24.168;2023-05-13T06:51:17;7.95;;;3.00;;
22007;SDS011;11168;56.976;24.168;2023-05-13T06:53:44;3.88;;;2.60;;
22007;SDS011;11168;56.976;24.168;2023-05-13T06:56:11;10.50;;;3.10;;
22007;SDS011;11168;56.976;24.168;2023-05-13T06:58:38;8.55;;;3.25;;
22007;SDS011;11168;56.976;24.168;2023-05-13T07:01:05;4.82;;;2.90;;
22007;SDS011;11168;56.976;24.168;2023-05-13T07:03:32;8.02;;;3.17;;
22007;SDS011;11168;56.976;24.168;2023-05-13T07:05:59;3.55;;;2.92;;
22007;SDS011;11168;56.976;24.168;2023-05-13T07:08:27;5.22;;;3.05;;
22007;SDS011;11168;56.976;24.168;2023-05-13T07:10:54;6.28;;;3.10;;
22007;SDS011;11168;56.976;24.168;2023-05-13T07:13:21;4.97;;;2.97;;
22007;SDS011;11168;56.976;24.168;2023-05-13T07:15:48;10.25;;;2.88;;
22007;SDS011;11168;56.976;24.168;2023-05-13T07:18:15;4.82;;;2.53;;
22007;SDS011;11168;56.976;24.168;2023-05-13T07:20:43;6.95;;;2.97;;
22007;SDS011;11168;56.976;24.168;2023-05-13T07:23:10;7.03;;;2.60;;
22007;SDS011;11168;56.976;24.168;2023-05-13T07:25:37;7.05;;;2.40;;
22007;SDS011;11168;56.976;24.168;2023-05-13T07:28:04;5.57;;;2.53;;
22007;SDS011;11168;56.976;24.168;2023-05-13T07:30:31;4.10;;;2.55;;
22007;SDS011;11168;56.976;24.168;2023-05-13T07:32:58;6.57;;;2.58;;
22007;SDS011;11168;56.976;24.168;2023-05-13T07:35:25;7.63;;;2.45;;
22007;SDS011;11168;56.976;24.168;2023-05-13T07:37:52;4.25;;;2.20;;
22007;SDS011;11168;56.976;24.168;2023-05-13T07:40:19;10.43;;;2.20;;
22007;SDS011;11168;56.976;24.168;2023-05-13T07:42:47;7.05;;;2.47;;
22007;SDS011;11168;56.976;24.168;2023-05-13T07:45:14;3.53;;;2.20;;
22007;SDS011;11168;56.976;24.168;2023-05-13T07:47:41;6.97;;;2.90;;
22007;SDS011;11168;56.976;24.168;2023-05-13T07:50:09;6.88;;;2.40;;
22007;SDS011;11168;56.976;24.168;2023-05-13T07:52:36;9.68;;;2.88;;
22007;SDS011;11168;56.976;24.168;2023-05-13T07:55:04;4.38;;;2.58;;
22007;SDS011;11168;56.976;24.168;2023-05-13T07:57:31;18.48;;;2.95;;
22007;SDS011;11168;56.976;24.168;2023-05-13T08:00:00;4.50;;;2.45;;
22007;SDS011;11168;56.976;24.168;2023-05-13T08:02:26;6.75;;;2.35;;
22007;SDS011;11168;56.976;24.168;2023-05-13T08:05:00;4.95;;;2.30;;
22007;SDS011;11168;56.976;24.168;2023-05-13T08:07:27;4.32;;;2.45;;
22007;SDS011;11168;56.976;24.168;2023-05-13T08:09:54;7.05;;;2.63;;
22007;SDS011;11168;56.976;24.168;2023-05-13T08:12:21;4.43;;;2.40;;
22007;SDS011;11168;56.976;24.168;2023-05-13T08:14:48;6.78;;;2.38;;
22007;SDS011;11168;56.976;24.168;2023-05-13T08:17:16;7.10;;;2.85;;
22007;SDS011;11168;56.976;24.168;2023-05-13T08:19:44;5.43;;;2.38;;
22007;SDS011;11168;56.976;24.168;2023-05-13T08:22:12;4.35;;;2.40;;
22007;SDS011;11168;56.976;24.168;2023-05-13T08:24:39;8.13;;;2.20;;
22007;SDS011;11168;56.976;24.168;2023-05-13T08:27:08;4.38;;;2.20;;
22007;SDS011;11168;56.976;24.168;2023-05-13T08:29:35;4.35;;;2.00;;
22007;SDS011;11168;56.976;24.168;2023-05-13T08:32:02;6.75;;;2.40;;
22007;SDS011;11168;56.976;24.168;2023-05-13T08:34:30;6.15;;;2.10;;
22007;SDS011;11168;56.976;24.168;2023-05-13T08:36:57;6.95;;;2.58;;
22007;SDS011;11168;56.976;24.168;2023-05-13T08:39:25;6.13;;;2.47;;
22007;SDS011;11168;56.976;24.168;2023-05-13T08:41:54;5.68;;;2.22;;
22007;SDS011;11168;56.976;24.168;2023-05-13T08:44:25;4.00;;;2.25;;
22007;SDS011;11168;56.976;24.168;2023-05-13T08:49:53;2.70;;;2.30;;
22007;SDS011;11168;56.976;24.168;2023-05-13T08:52:23;7.68;;;2.17;;
22007;SDS011;11168;56.976;24.168;2023-05-13T08:54:50;5.90;;;2.30;;
22007;SDS011;11168;56.976;24.168;2023-05-13T08:57:17;6.95;;;2.58;;
22007;SDS011;11168;56.976;24.168;2023-05-13T08:59:44;4.43;;;2.30;;
22007;SDS011;11168;56.976;24.168;2023-05-13T09:02:11;4.15;;;2.40;;
22007;SDS011;11168;56.976;24.168;2023-05-13T09:04:38;7.45;;;2.83;;
22007;SDS011;11168;56.976;24.168;2023-05-13T09:07:07;10.80;;;2.80;;
22007;SDS011;11168;56.976;24.168;2023-05-13T09:09:36;6.25;;;2.72;;
22007;SDS011;11168;56.976;24.168;2023-05-13T09:12:03;5.55;;;2.42;;
22007;SDS011;11168;56.976;24.168;2023-05-13T09:14:31;4.10;;;2.55;;
22007;SDS011;11168;56.976;24.168;2023-05-13T09:17:00;5.78;;;2.70;;
22007;SDS011;11168;56.976;24.168;2023-05-13T09:19:27;11.70;;;2.80;;
22007;SDS011;11168;56.976;24.168;2023-05-13T09:21:54;8.68;;;2.58;;
22007;SDS011;11168;56.976;24.168;2023-05-13T09:24:22;7.10;;;2.60;;
22007;SDS011;11168;56.976;24.168;2023-05-13T09:26:50;7.07;;;2.88;;
22007;SDS011;11168;56.976;24.168;2023-05-13T09:29:26;7.68;;;2.80;;
22007;SDS011;11168;56.976;24.168;2023-05-13T09:31:55;6.35;;;2.80;;
22007;SDS011;11168;56.976;24.168;2023-05-13T09:34:28;4.83;;;2.60;;
22007;SDS011;11168;56.976;24.168;2023-05-13T09:39:37;6.22;;;3.05;;
22007;SDS011;11168;56.976;24.168;2023-05-13T09:42:13;5.82;;;2.80;;
22007;SDS011;11168;56.976;24.168;2023-05-13T09:44:42;6.03;;;2.85;;
22007;SDS011;11168;56.976;24.168;2023-05-13T09:47:11;6.88;;;2.83;;
22007;SDS011;11168;56.976;24.168;2023-05-13T09:49:40;6.28;;;2.45;;
22007;SDS011;11168;56.976;24.168;2023-05-13T09:52:08;4.18;;;2.10;;
22007;SDS011;11168;56.976;24.168;2023-05-13T09:54:36;7.53;;;2.55;;
22007;SDS011;11168;56.976;24.168;2023-05-13T09:57:04;5.97;;;2.30;;
22007;SDS011;11168;56.976;24.168;2023-05-13T09:59:34;7.05;;;2.60;;
22007;SDS011;11168;56.976;24.168;2023-05-13T10:02:03;6.53;;;2.05;;
22007;SDS011;11168;56.976;24.168;2023-05-13T10:04:32;7.38;;;2.40;;
22007;SDS011;11168;56.976;24.168;2023-05-13T10:07:01;7.65;;;2.40;;
22007;SDS011;11168;56.976;24.168;2023-05-13T10:09:29;6.25;;;2.10;;
22007;SDS011;11168;56.976;24.168;2023-05-13T10:12:05;9.20;;;2.25;;
22007;SDS011;11168;56.976;24.168;2023-05-13T10:14:34;7.82;;;2.53;;
22007;SDS011;11168;56.976;24.168;2023-05-13T10:17:03;5.80;;;2.08;;
22007;SDS011;11168;56.976;24.168;2023-05-13T10:19:32;5.90;;;2.15;;
22007;SDS011;11168;56.976;24.168;2023-05-13T10:22:14;7.20;;;2.30;;
22007;SDS011;11168;56.976;24.168;2023-05-13T10:24:47;7.32;;;2.40;;
22007;SDS011;11168;56.976;24.168;2023-05-13T10:27:18;5.63;;;2.00;;
22007;SDS011;11168;56.976;24.168;2023-05-13T10:29:48;9.60;;;2.47;;
22007;SDS011;11168;56.976;24.168;2023-05-13T10:32:20;8.98;;;2.58;;
22007;SDS011;11168;56.976;24.168;2023-05-13T10:34:58;6.25;;;2.33;;
22007;SDS011;11168;56.976;24.168;2023-05-13T10:43:30;6.35;;;2.30;;
22007;SDS011;11168;56.976;24.168;2023-05-13T10:46:10;10.25;;;2.50;;
22007;SDS011;11168;56.976;24.168;2023-05-13T10:48:45;4.47;;;2.00;;
22007;SDS011;11168;56.976;24.168;2023-05-13T10:51:21;15.02;;;2.67;;
22007;SDS011;11168;56.976;24.168;2023-05-13T10:53:50;5.70;;;2.03;;
22007;SDS011;11168;56.976;24.168;2023-05-13T10:56:31;2.00;;;1.80;;
22007;SDS011;11168;56.976;24.168;2023-05-13T10:59:04;6.68;;;1.95;;
22007;SDS011;11168;56.976;24.168;2023-05-13T11:01:47;11.98;;;2.65;;
22007;SDS011;11168;56.976;24.168;2023-05-13T11:04:35;7.07;;;2.22;;
22007;SDS011;11168;56.976;24.168;2023-05-13T11:07:30;6.53;;;2.22;;
22007;SDS011;11168;56.976;24.168;2023-05-13T11:09:58;4.55;;;2.50;;
22007;SDS011;11168;56.976;24.168;2023-05-13T11:12:25;4.05;;;2.47;;
22007;SDS011;11168;56.976;24.168;2023-05-13T11:14:58;8.10;;;2.58;;
22007;SDS011;11168;56.976;24.168;2023-05-13T11:17:35;10.82;;;2.50;;
22007;SDS011;11168;56.976;24.168;2023-05-13T11:20:02;5.90;;;2.20;;
22007;SDS011;11168;56.976;24.168;2023-05-13T11:22:35;11.50;;;2.33;;
22007;SDS011;11168;56.976;24.168;2023-05-13T11:25:07;8.52;;;2.42;;
22007;SDS011;11168;56.976;24.168;2023-05-13T11:27:45;5.65;;;2.25;;
22007;SDS011;11168;56.976;24.168;2023-05-13T11:30:20;4.93;;;2.22;;
22007;SDS011;11168;56.976;24.168;2023-05-13T11:35:20;9.53;;;2.73;;
22007;SDS011;11168;56.976;24.168;2023-05-13T11:37:51;5.47;;;2.15;;
22007;SDS011;11168;56.976;24.168;2023-05-13T11:40:22;3.50;;;2.05;;
22007;SDS011;11168;56.976;24.168;2023-05-13T11:42:49;9.45;;;2.30;;
22007;SDS011;11168;56.976;24.168;2023-05-13T11:45:17;8.65;;;2.20;;
22007;SDS011;11168;56.976;24.168;2023-05-13T11:47:46;7.57;;;2.65;;
22007;SDS011;11168;56.976;24.168;2023-05-13T11:50:16;13.82;;;2.58;;
22007;SDS011;11168;56.976;24.168;2023-05-13T11:52:53;9.10;;;2.55;;
22007;SDS011;11168;56.976;24.168;2023-05-13T11:55:25;8.70;;;2.45;;
22007;SDS011;11168;56.976;24.168;2023-05-13T11:57:52;8.00;;;2.15;;
22007;SDS011;11168;56.976;24.168;2023-05-13T12:00:23;5.75;;;2.40;;
22007;SDS011;11168;56.976;24.168;2023-05-13T12:02:52;6.13;;;2.40;;
22007;SDS011;11168;56.976;24.168;2023-05-13T12:05:21;7.07;;;2.03;;
22007;SDS011;11168;56.976;24.168;2023-05-13T12:07:49;6.38;;;2.38;;
22007;SDS011;11168;56.976;24.168;2023-05-13T12:10:16;8.55;;;2.25;;
22007;SDS011;11168;56.976;24.168;2023-05-13T12:12:44;6.95;;;2.10;;
22007;SDS011;11168;56.976;24.168;2023-05-13T12:15:12;9.23;;;2.60;;
22007;SDS011;11168;56.976;24.168;2023-05-13T12:17:41;6.68;;;2.58;;
22007;SDS011;11168;56.976;24.168;2023-05-13T12:28:36;4.75;;;2.35;;
22007;SDS011;11168;56.976;24.168;2023-05-13T12:33:27;5.38;;;2.40;;
22007;SDS011;11168;56.976;24.168;2023-05-13T12:41:31;7.07;;;2.50;;
22007;SDS011;11168;56.976;24.168;2023-05-13T12:44:01;6.57;;;2.30;;
22007;SDS011;11168;56.976;24.168;2023-05-13T12:46:28;5.40;;;2.17;;
22007;SDS011;11168;56.976;24.168;2023-05-13T12:48:56;3.13;;;2.20;;
22007;SDS011;11168;56.976;24.168;2023-05-13T12:51:24;6.57;;;2.30;;
22007;SDS011;11168;56.976;24.168;2023-05-13T12:53:52;6.43;;;2.05;;
22007;SDS011;11168;56.976;24.168;2023-05-13T12:56:23;6.55;;;2.50;;
22007;SDS011;11168;56.976;24.168;2023-05-13T12:58:53;5.88;;;2.38;;
22007;SDS011;11168;56.976;24.168;2023-05-13T13:01:21;7.00;;;2.20;;
22007;SDS011;11168;56.976;24.168;2023-05-13T13:03:48;4.50;;;2.50;;
22007;SDS011;11168;56.976;24.168;2023-05-13T13:06:15;4.28;;;2.10;;
22007;SDS011;11168;56.976;24.168;2023-05-13T13:08:42;3.33;;;2.10;;
22007;SDS011;11168;56.976;24.168;2023-05-13T13:11:09;6.55;;;2.00;;
22007;SDS011;11168;56.976;24.168;2023-05-13T13:13:40;7.90;;;2.60;;
22007;SDS011;11168;56.976;24.168;2023-05-13T13:16:07;7.90;;;2.30;;
22007;SDS011;11168;56.976;24.168;2023-05-13T13:18:34;6.70;;;2.20;;
22007;SDS011;11168;56.976;24.168;2023-05-13T13:21:01;7.90;;;2.38;;
22007;SDS011;11168;56.976;24.168;2023-05-13T13:23:30;6.57;;;2.30;;
22007;SDS011;11168;56.976;24.168;2023-05-13T13:25:57;3.83;;;2.22;;
22007;SDS011;11168;56.976;24.168;2023-05-13T13:28:25;4.82;;;2.75;;
22007;SDS011;11168;56.976;24.168;2023-05-13T13:30:52;5.53;;;2.10;;
22007;SDS011;11168;56.976;24.168;2023-05-13T13:33:19;4.00;;;2.00;;
22007;SDS011;11168;56.976;24.168;2023-05-13T13:35:47;5.50;;;2.20;;
22007;SDS011;11168;56.976;24.168;2023-05-13T13:38:14;7.68;;;2.22;;
22007;SDS011;11168;56.976;24.168;2023-05-13T13:40:41;6.30;;;2.08;;
22007;SDS011;11168;56.976;24.168;2023-05-13T13:43:08;14.05;;;3.15;;
22007;SDS011;11168;56.976;24.168;2023-05-13T13:45:35;6.75;;;2.42;;
22007;SDS011;11168;56.976;24.168;2023-05-13T13:48:02;4.05;;;1.80;;
22007;SDS011;11168;56.976;24.168;2023-05-13T13:50:29;4.57;;;2.30;;
22007;SDS011;11168;56.976;24.168;2023-05-13T13:52:57;5.85;;;2.05;;
22007;SDS011;11168;56.976;24.168;2023-05-13T13:55:24;5.72;;;2.22;;
22007;SDS011;11168;56.976;24.168;2023-05-13T13:57:51;5.00;;;2.10;;
22007;SDS011;11168;56.976;24.168;2023-05-13T14:00:18;7.45;;;2.38;;
22007;SDS011;11168;56.976;24.168;2023-05-13T14:02:46;5.32;;;2.50;;
22007;SDS011;11168;56.976;24.168;2023-05-13T14:05:13;6.45;;;2.10;;
22007;SDS011;11168;56.976;24.168;2023-05-13T14:07:41;5.60;;;2.65;;
22007;SDS011;11168;56.976;24.168;2023-05-13T14:10:08;8.85;;;2.25;;
22007;SDS011;11168;56.976;24.168;2023-05-13T14:12:36;7.93;;;2.35;;
22007;SDS011;11168;56.976;24.168;2023-05-13T14:15:03;8.10;;;2.40;;
22007;SDS011;11168;56.976;24.168;2023-05-13T14:17:31;8.93;;;2.70;;
22007;SDS011;11168;56.976;24.168;2023-05-13T14:19:59;11.27;;;2.83;;
22007;SDS011;11168;56.976;24.168;2023-05-13T14:22:26;4.57;;;2.40;;
22007;SDS011;11168;56.976;24.168;2023-05-13T14:24:53;7.13;;;2.55;;
22007;SDS011;11168;56.976;24.168;2023-05-13T14:27:19;7.35;;;2.30;;
22007;SDS011;11168;56.976;24.168;2023-05-13T14:29:48;7.38;;;2.28;;
22007;SDS011;11168;56.976;24.168;2023-05-13T14:32:15;3.60;;;2.58;;
22007;SDS011;11168;56.976;24.168;2023-05-13T14:34:42;7.95;;;2.72;;
22007;SDS011;11168;56.976;24.168;2023-05-13T14:37:09;7.53;;;2.45;;
22007;SDS011;11168;56.976;24.168;2023-05-13T14:39:36;7.82;;;2.50;;
22007;SDS011;11168;56.976;24.168;2023-05-13T14:42:04;15.82;;;2.80;;
22007;SDS011;11168;56.976;24.168;2023-05-13T14:44:31;11.02;;;2.40;;
22007;SDS011;11168;56.976;24.168;2023-05-13T14:46:58;4.80;;;2.40;;
22007;SDS011;11168;56.976;24.168;2023-05-13T14:49:25;6.55;;;2.40;;
22007;SDS011;11168;56.976;24.168;2023-05-13T14:51:52;13.48;;;2.90;;
22007;SDS011;11168;56.976;24.168;2023-05-13T14:54:19;5.47;;;2.42;;
22007;SDS011;11168;56.976;24.168;2023-05-13T14:56:47;7.65;;;2.58;;
22007;SDS011;11168;56.976;24.168;2023-05-13T14:59:14;17.48;;;3.03;;
22007;SDS011;11168;56.976;24.168;2023-05-13T15:01:41;6.28;;;2.03;;
22007;SDS011;11168;56.976;24.168;2023-05-13T15:04:08;9.25;;;2.42;;
22007;SDS011;11168;56.976;24.168;2023-05-13T15:06:36;19.88;;;2.85;;
22007;SDS011;11168;56.976;24.168;2023-05-13T15:09:03;9.32;;;2.70;;
22007;SDS011;11168;56.976;24.168;2023-05-13T15:11:31;8.65;;;2.33;;
22007;SDS011;11168;56.976;24.168;2023-05-13T15:13:58;6.25;;;2.50;;